createdAt,value
2019-05-15T00:02:00.364Z,18.37
2019-05-15T00:04:58.386Z,20.12
2019-05-15T00:07:51.830Z,18.20
2019-05-15T00:10:48.408Z,19.15
2019-05-15T00:13:42.749Z,18.80
2019-05-15T00:16:38.715Z,19.70
2019-05-15T00:19:33.926Z,20.02
2019-05-15T00:22:29.193Z,25.00
2019-05-15T00:25:23.793Z,19.98
2019-05-15T00:28:18.891Z,20.17
2019-05-15T00:31:14.371Z,21.45
2019-05-15T00:34:12.844Z,21.95
2019-05-15T00:37:05.811Z,22.62
2019-05-15T00:40:01.284Z,22.60
2019-05-15T00:42:57.903Z,22.65
2019-05-15T00:45:52.869Z,21.93
2019-05-15T00:48:48.777Z,21.73
2019-05-15T00:51:43.708Z,21.12
2019-05-15T00:54:39.524Z,22.73
2019-05-15T00:57:35.287Z,21.57
2019-05-15T01:00:45.659Z,21.75
2019-05-15T01:03:41.657Z,22.32
2019-05-15T01:06:38.951Z,24.20
2019-05-15T01:09:38.306Z,21.30
2019-05-15T01:12:32.554Z,22.67
2019-05-15T01:15:29.033Z,24.77
2019-05-15T01:18:24.577Z,25.27
2019-05-15T01:21:20.983Z,22.73
2019-05-15T01:24:18.690Z,21.70
2019-05-15T01:27:13.232Z,23.30
2019-05-15T01:30:09.277Z,23.85
2019-05-15T01:33:05.313Z,25.80
2019-05-15T01:36:01.696Z,27.07
2019-05-15T01:38:58.456Z,24.23
2019-05-15T01:41:53.670Z,22.93
2019-05-15T01:44:49.964Z,22.00
2019-05-15T01:47:47.984Z,19.12
2019-05-15T01:50:43.277Z,17.32
2019-05-15T01:53:39.362Z,19.25
2019-05-15T01:56:35.070Z,16.40
2019-05-15T01:59:31.150Z,18.67
2019-05-15T02:02:28.029Z,18.40
2019-05-15T02:05:25.217Z,19.25
2019-05-15T02:08:21.811Z,17.90
2019-05-15T02:11:18.081Z,17.62
2019-05-15T02:14:13.876Z,18.77
2019-05-15T02:17:09.799Z,18.50
2019-05-15T02:20:05.499Z,21.12
2019-05-15T02:23:00.906Z,24.80
2019-05-15T02:25:58.750Z,19.25
2019-05-15T02:28:53.043Z,19.35
2019-05-15T02:31:50.258Z,19.23
2019-05-15T02:34:45.208Z,18.87
2019-05-15T02:37:41.590Z,17.35
2019-05-15T02:40:40.116Z,16.82
2019-05-15T02:43:33.341Z,16.65
2019-05-15T02:46:30.083Z,17.15
2019-05-15T02:49:29.907Z,18.15
2019-05-15T02:52:23.120Z,17.70
2019-05-15T02:55:19.710Z,19.57
2019-05-15T02:58:20.484Z,18.30
2019-05-15T03:01:11.556Z,18.67
2019-05-15T03:04:09.215Z,17.37
2019-05-15T03:07:03.663Z,20.35
2019-05-15T03:10:01.564Z,17.82
2019-05-15T03:13:00.127Z,29.50
2019-05-15T03:15:55.424Z,20.02
2019-05-15T03:18:55.288Z,17.02
2019-05-15T03:21:49.639Z,20.08
2019-05-15T03:24:45.000Z,18.02
2019-05-15T03:27:42.390Z,18.48
2019-05-15T03:31:06.778Z,19.23
2019-05-15T03:33:44.790Z,18.82
2019-05-15T03:36:36.227Z,19.77
2019-05-15T03:39:33.546Z,19.70
2019-05-15T03:42:30.515Z,21.30
2019-05-15T03:45:29.772Z,24.65
2019-05-15T03:48:28.612Z,24.55
2019-05-15T03:51:28.748Z,26.25
2019-05-15T03:54:24.229Z,27.07
2019-05-15T03:57:23.266Z,27.35
2019-05-15T04:00:21.784Z,25.30
2019-05-15T04:03:20.176Z,25.10
2019-05-15T04:06:14.898Z,25.23
2019-05-15T04:09:12.325Z,27.55
2019-05-15T04:12:09.517Z,23.65
2019-05-15T04:15:04.090Z,25.48
2019-05-15T04:18:00.257Z,27.07
2019-05-15T04:20:56.270Z,25.27
2019-05-15T04:23:52.173Z,24.27
2019-05-15T04:26:48.727Z,22.75
2019-05-15T04:29:43.995Z,23.92
2019-05-15T04:32:39.843Z,21.33
2019-05-15T04:35:34.674Z,18.62
2019-05-15T04:38:33.612Z,17.10
2019-05-15T04:41:33.630Z,16.20
2019-05-15T04:44:30.461Z,17.82
2019-05-15T04:47:30.236Z,17.15
2019-05-15T04:50:24.878Z,17.48
2019-05-15T04:53:20.518Z,16.57
2019-05-15T04:56:19.176Z,16.60
2019-05-15T04:59:13.298Z,17.80
2019-05-15T05:02:17.595Z,16.37
2019-05-15T05:05:10.104Z,18.45
2019-05-15T05:08:09.315Z,17.37
2019-05-15T05:11:09.385Z,16.85
2019-05-15T05:14:11.280Z,16.42
2019-05-15T05:17:09.507Z,16.77
2019-05-15T05:20:13.599Z,16.32
2019-05-15T05:23:19.910Z,16.60
2019-05-15T05:26:21.350Z,15.40
2019-05-15T05:29:22.835Z,15.95
2019-05-15T05:32:31.994Z,16.15
2019-05-15T05:35:18.791Z,17.87
2019-05-15T05:38:18.725Z,17.48
2019-05-15T05:41:13.972Z,15.53
2019-05-15T05:44:11.198Z,16.17
2019-05-15T05:47:09.460Z,14.45
2019-05-15T05:50:07.962Z,15.25
2019-05-15T05:53:03.758Z,13.45
2019-05-15T05:56:00.990Z,21.15
2019-05-15T05:58:58.635Z,15.32
2019-05-15T06:01:58.980Z,16.70
2019-05-15T06:04:54.460Z,14.63
2019-05-15T06:07:50.463Z,14.23
2019-05-15T06:10:49.184Z,15.05
2019-05-15T06:13:45.313Z,18.10
2019-05-15T06:16:43.302Z,15.20
2019-05-15T06:19:43.841Z,15.72
2019-05-15T06:22:44.235Z,13.95
2019-05-15T06:25:43.563Z,16.12
2019-05-15T06:28:41.778Z,14.25
2019-05-15T06:31:38.851Z,14.10
2019-05-15T06:34:35.329Z,15.48
2019-05-15T06:37:30.684Z,18.23
2019-05-15T06:40:28.900Z,16.15
2019-05-15T06:43:28.851Z,17.10
2019-05-15T06:46:28.019Z,16.82
2019-05-15T06:49:23.003Z,21.02
2019-05-15T06:52:20.812Z,16.97
2019-05-15T06:55:18.433Z,17.07
2019-05-15T06:58:18.670Z,16.17
2019-05-15T07:01:13.436Z,15.75
2019-05-15T07:04:10.599Z,17.98
2019-05-15T07:07:10.668Z,16.57
2019-05-15T07:10:05.136Z,18.23
2019-05-15T07:13:03.166Z,16.50
2019-05-15T07:16:07.883Z,22.22
2019-05-15T07:19:02.024Z,16.73
2019-05-15T07:22:02.158Z,22.27
2019-05-15T07:24:58.608Z,22.40
2019-05-15T07:27:58.113Z,16.27
2019-05-15T07:30:55.220Z,21.95
2019-05-15T07:33:53.898Z,16.30
2019-05-15T07:36:51.071Z,14.23
2019-05-15T07:39:48.781Z,15.00
2019-05-15T07:42:48.789Z,13.50
2019-05-15T07:45:45.093Z,14.75
2019-05-15T07:48:43.981Z,14.93
2019-05-15T07:51:40.293Z,14.15
2019-05-15T07:54:38.305Z,14.23
2019-05-15T07:57:44.701Z,13.70
2019-05-15T08:00:43.242Z,14.78
2019-05-15T08:03:55.614Z,13.03
2019-05-15T08:06:40.542Z,13.95
2019-05-15T08:09:39.090Z,11.97
2019-05-15T08:12:44.154Z,11.93
2019-05-15T08:15:41.330Z,11.43
2019-05-15T08:18:44.028Z,9.73
2019-05-15T08:21:51.426Z,10.70
2019-05-15T08:24:42.878Z,8.75
2019-05-15T08:27:39.333Z,8.53
2019-05-15T08:30:35.379Z,9.73
2019-05-15T08:33:31.674Z,9.90
2019-05-15T08:36:31.136Z,8.63
2019-05-15T08:39:24.870Z,7.70
2019-05-15T08:42:22.029Z,8.25
2019-05-15T08:45:28.327Z,9.28
2019-05-15T08:48:32.605Z,7.35
2019-05-15T08:51:28.399Z,8.00
2019-05-15T08:54:23.314Z,7.72
2019-05-15T08:57:20.378Z,8.13
2019-05-15T09:00:18.561Z,8.60
2019-05-15T09:03:14.451Z,8.90
2019-05-15T09:06:13.396Z,9.10
2019-05-15T09:09:13.166Z,8.50
2019-05-15T09:12:12.062Z,9.98
2019-05-15T09:15:11.136Z,8.40
2019-05-15T09:18:15.568Z,8.70
2019-05-15T09:21:09.088Z,7.65
2019-05-15T09:24:09.376Z,8.15
2019-05-15T09:27:05.192Z,9.00
2019-05-15T09:30:08.988Z,9.70
2019-05-15T09:33:08.614Z,8.83
2019-05-15T09:36:08.815Z,8.05
2019-05-15T09:39:08.631Z,8.40
2019-05-15T09:42:04.624Z,7.67
2019-05-15T09:45:01.996Z,8.03
2019-05-15T09:47:59.926Z,8.45
2019-05-15T09:50:58.675Z,7.85
2019-05-15T09:54:00.644Z,7.92
2019-05-15T09:57:03.131Z,8.50
2019-05-15T10:00:04.586Z,8.93
2019-05-15T10:03:05.973Z,7.37
2019-05-15T10:06:05.077Z,7.33
2019-05-15T10:09:11.340Z,7.00
2019-05-15T10:12:11.533Z,6.80
2019-05-15T10:15:18.592Z,10.18
2019-05-15T10:18:18.744Z,6.97
2019-05-15T10:21:18.396Z,7.67
2019-05-15T10:24:31.962Z,7.58
2019-05-15T10:27:28.642Z,7.35
2019-05-15T10:30:28.416Z,7.25
2019-05-15T10:33:29.433Z,7.08
2019-05-15T10:36:28.089Z,7.60
2019-05-15T10:39:39.128Z,8.23
2019-05-15T10:42:41.966Z,8.65
2019-05-15T10:45:54.185Z,7.40
2019-05-15T10:48:50.604Z,9.05
2019-05-15T10:51:47.886Z,8.48
2019-05-15T10:54:47.027Z,7.80
2019-05-15T10:57:46.505Z,8.45
2019-05-15T11:00:49.324Z,8.28
2019-05-15T11:03:49.236Z,8.95
2019-05-15T11:06:45.473Z,9.00
2019-05-15T11:09:48.889Z,8.60
2019-05-15T11:12:48.288Z,10.15
2019-05-15T11:15:55.915Z,7.30
2019-05-15T11:18:55.824Z,7.28
2019-05-15T11:22:02.570Z,7.22
2019-05-15T11:24:59.463Z,8.18
2019-05-15T11:27:54.433Z,8.03
2019-05-15T11:30:52.582Z,8.50
2019-05-15T11:33:49.279Z,8.23
2019-05-15T11:36:45.285Z,8.70
2019-05-15T11:39:47.052Z,7.80
2019-05-15T11:42:45.784Z,10.45
2019-05-15T11:46:25.886Z,10.75
2019-05-15T11:49:20.152Z,8.98
2019-05-15T11:52:22.058Z,9.73
2019-05-15T11:55:18.567Z,9.08
2019-05-15T11:58:14.882Z,8.80
2019-05-15T12:01:29.257Z,8.35
2019-05-15T12:04:33.720Z,9.03
2019-05-15T12:07:24.198Z,9.18
2019-05-15T12:10:21.459Z,10.72
2019-05-15T12:13:20.596Z,11.43
2019-05-15T12:16:15.997Z,10.32
2019-05-15T12:19:17.096Z,9.85
2019-05-15T12:22:08.306Z,10.80
2019-05-15T12:25:03.257Z,10.55
2019-05-15T12:27:59.635Z,8.90
2019-05-15T12:30:54.567Z,8.25
2019-05-15T12:33:49.917Z,10.38
2019-05-15T12:36:53.193Z,9.10
2019-05-15T12:39:42.582Z,8.85
2019-05-15T13:00:19.849Z,10.53
2019-05-15T13:03:18.117Z,11.85
2019-05-15T13:06:14.766Z,11.88
2019-05-15T13:09:11.218Z,11.95
2019-05-15T13:12:08.817Z,11.73
2019-05-15T13:15:08.036Z,11.40
2019-05-15T13:18:03.792Z,12.20
2019-05-15T13:21:00.612Z,13.78
2019-05-15T13:23:58.661Z,13.03
2019-05-15T13:26:55.450Z,12.35
2019-05-15T13:29:52.535Z,12.65
2019-05-15T13:32:50.062Z,13.35
2019-05-15T13:35:48.474Z,13.40
2019-05-15T13:38:42.246Z,12.15
2019-05-15T13:41:38.554Z,14.45
2019-05-15T13:44:34.686Z,15.60
2019-05-15T13:47:35.060Z,21.82
2019-05-15T13:50:30.499Z,29.82
2019-05-15T13:53:27.723Z,30.72
2019-05-15T13:56:22.267Z,31.40
2019-05-15T13:59:19.438Z,34.33
2019-05-15T14:02:15.640Z,41.70
2019-05-15T14:05:12.475Z,38.85
2019-05-15T14:08:08.735Z,33.88
2019-05-15T14:11:06.154Z,35.68
2019-05-15T14:14:03.334Z,31.65
2019-05-15T14:17:00.551Z,33.02
2019-05-15T14:19:58.538Z,28.02
2019-05-15T14:22:55.494Z,25.15
2019-05-15T14:25:51.710Z,26.05
2019-05-15T14:28:48.073Z,23.77
2019-05-15T14:31:44.998Z,22.90
2019-05-15T14:34:41.084Z,20.02
2019-05-15T14:37:40.259Z,17.77
2019-05-15T14:40:36.691Z,24.27
2019-05-15T14:43:31.916Z,20.00
2019-05-15T14:46:28.500Z,19.30
2019-05-15T14:49:33.253Z,18.85
2019-05-15T14:52:24.150Z,18.52
2019-05-15T14:55:22.326Z,18.67
2019-05-15T14:58:20.767Z,16.77
2019-05-15T15:01:18.509Z,17.62
2019-05-15T15:04:18.301Z,16.60
2019-05-15T15:07:14.725Z,16.35
2019-05-15T15:10:13.039Z,16.42
2019-05-15T15:13:11.206Z,16.60
2019-05-15T15:16:08.631Z,17.12
2019-05-15T15:19:10.079Z,17.52
2019-05-15T15:22:05.662Z,21.00
2019-05-15T15:25:02.195Z,17.87
2019-05-15T15:27:59.845Z,18.67
2019-05-15T15:30:58.140Z,18.55
2019-05-15T15:33:53.889Z,18.05
2019-05-15T15:36:51.053Z,20.08
2019-05-15T15:39:48.300Z,18.10
2019-05-15T15:42:48.369Z,17.95
2019-05-15T15:45:42.257Z,17.98
2019-05-15T15:48:39.142Z,19.05
2019-05-15T15:51:34.439Z,18.55
2019-05-15T15:54:32.857Z,20.12
2019-05-15T15:57:28.608Z,17.98
2019-05-15T16:00:28.387Z,18.30
2019-05-15T16:03:22.162Z,19.55
2019-05-15T16:06:19.072Z,20.02
2019-05-15T16:09:15.971Z,21.90
2019-05-15T16:12:11.219Z,20.75
2019-05-15T16:15:08.882Z,22.52
2019-05-15T16:18:05.577Z,20.12
2019-05-15T16:21:01.063Z,21.57
2019-05-15T16:23:58.272Z,26.07
2019-05-15T16:26:54.090Z,20.77
2019-05-15T16:29:51.908Z,19.82
2019-05-15T16:32:48.593Z,19.85
2019-05-15T16:35:44.452Z,21.35
2019-05-15T16:38:40.074Z,23.45
2019-05-15T16:41:37.893Z,20.55
2019-05-15T16:44:32.231Z,19.00
2019-05-15T16:47:28.111Z,18.65
2019-05-15T16:50:28.439Z,18.73
2019-05-15T16:53:23.420Z,18.40
2019-05-15T16:56:19.418Z,18.52
2019-05-15T16:59:18.204Z,18.37
2019-05-15T17:02:12.865Z,17.52
2019-05-15T17:05:08.581Z,17.80
2019-05-15T17:08:04.090Z,17.42
2019-05-15T17:11:02.818Z,16.37
2019-05-15T17:13:59.230Z,18.32
2019-05-15T17:16:58.446Z,17.65
2019-05-15T17:19:54.632Z,17.02
2019-05-15T17:22:50.690Z,18.65
2019-05-15T17:25:48.870Z,17.75
2019-05-15T17:28:44.912Z,17.35
2019-05-15T17:31:43.278Z,18.17
2019-05-15T17:34:41.138Z,18.35
2019-05-15T17:37:39.264Z,16.80
2019-05-15T17:40:37.805Z,15.80
2019-05-15T17:43:33.695Z,15.95
2019-05-15T17:46:30.116Z,15.38
2019-05-15T17:49:28.025Z,16.20
2019-05-15T17:52:23.984Z,15.75
2019-05-15T17:55:19.473Z,16.32
2019-05-15T17:58:15.353Z,15.30
2019-05-15T18:01:11.254Z,14.75
2019-05-15T18:04:08.940Z,17.70
2019-05-15T18:07:05.167Z,14.40
2019-05-15T18:10:01.759Z,15.43
2019-05-15T18:12:59.676Z,14.58
2019-05-15T18:15:55.488Z,14.07
2019-05-15T18:18:51.972Z,14.68
2019-05-15T18:21:49.605Z,14.75
2019-05-15T18:24:43.749Z,15.30
2019-05-15T18:27:40.515Z,15.53
2019-05-15T18:30:38.863Z,15.38
2019-05-15T18:33:34.849Z,14.55
2019-05-15T18:36:31.341Z,14.63
2019-05-15T18:39:29.293Z,14.80
2019-05-15T18:42:29.080Z,14.87
2019-05-15T18:45:24.411Z,14.95
2019-05-15T18:48:22.583Z,14.93
2019-05-15T18:51:20.450Z,14.68
2019-05-15T18:54:18.766Z,14.58
2019-05-15T18:57:14.477Z,14.30
2019-05-15T19:00:12.287Z,15.43
2019-05-15T19:03:19.680Z,14.38
2019-05-15T19:06:09.180Z,14.73
2019-05-15T19:09:08.577Z,14.65
2019-05-15T19:12:09.031Z,15.23
2019-05-15T19:15:04.617Z,16.00
2019-05-15T19:18:04.920Z,16.37
2019-05-15T19:21:03.649Z,16.48
2019-05-15T19:24:01.693Z,15.90
2019-05-15T19:27:00.255Z,16.15
2019-05-15T19:29:59.208Z,14.87
2019-05-15T19:32:58.597Z,14.63
2019-05-15T19:35:57.147Z,15.08
2019-05-15T19:38:56.240Z,16.60
2019-05-15T19:41:54.738Z,15.05
2019-05-15T19:44:53.863Z,14.93
2019-05-15T19:47:52.229Z,15.38
2019-05-15T19:50:49.198Z,15.50
2019-05-15T19:53:45.099Z,14.55
2019-05-15T19:56:41.650Z,15.32
2019-05-15T19:59:38.476Z,15.15
2019-05-15T20:02:33.855Z,14.80
2019-05-15T20:05:31.246Z,15.98
2019-05-15T20:08:27.903Z,15.50
2019-05-15T20:11:24.559Z,15.45
2019-05-15T20:14:20.306Z,16.15
2019-05-15T20:17:18.322Z,15.53
2019-05-15T20:20:14.244Z,16.15
2019-05-15T20:23:10.589Z,15.48
2019-05-15T20:26:08.413Z,16.90
2019-05-15T20:29:03.172Z,16.45
2019-05-15T20:31:58.720Z,19.27
2019-05-15T20:34:54.508Z,16.90
2019-05-15T20:37:49.822Z,15.93
2019-05-15T20:40:45.400Z,16.02
2019-05-15T20:43:42.277Z,16.80
2019-05-15T20:46:39.125Z,15.95
2019-05-15T20:49:34.302Z,15.72
2019-05-15T20:52:31.786Z,15.98
2019-05-15T20:55:27.413Z,16.27
2019-05-15T20:58:23.027Z,15.43
2019-05-15T21:01:18.913Z,16.02
2019-05-15T21:04:20.572Z,16.10
2019-05-15T21:07:10.451Z,15.85
2019-05-15T21:10:08.287Z,15.32
2019-05-15T21:13:01.465Z,16.23
2019-05-15T21:15:58.976Z,16.55
2019-05-15T21:18:52.662Z,16.00
2019-05-15T21:21:48.064Z,15.72
2019-05-15T21:24:44.124Z,16.25
2019-05-15T21:27:43.080Z,16.93
2019-05-15T21:30:37.909Z,16.02
2019-05-15T21:33:32.319Z,17.00
2019-05-15T21:36:28.189Z,16.52
2019-05-15T21:39:23.975Z,16.37
2019-05-15T21:42:19.038Z,16.07
2019-05-15T21:45:14.950Z,16.32
2019-05-15T21:48:09.937Z,16.25
2019-05-15T21:51:10.965Z,16.15
2019-05-15T21:54:01.384Z,16.15
2019-05-15T21:57:12.785Z,18.35
2019-05-15T21:59:52.942Z,16.87
2019-05-15T22:02:49.405Z,16.55
2019-05-15T22:05:44.120Z,16.48
2019-05-15T22:08:40.097Z,15.85
2019-05-15T22:11:36.687Z,16.25
2019-05-15T22:14:31.486Z,16.30
2019-05-15T22:17:29.273Z,16.55
2019-05-15T22:20:23.072Z,16.17
2019-05-15T22:23:21.160Z,16.57
2019-05-15T22:26:21.573Z,18.77
2019-05-15T22:29:17.742Z,17.32
2019-05-15T22:32:11.949Z,18.05
2019-05-15T22:35:13.474Z,18.35
2019-05-15T22:38:05.266Z,18.15
2019-05-15T22:41:01.455Z,17.02
2019-05-15T22:43:57.017Z,16.48
2019-05-15T22:46:52.729Z,17.05
2019-05-15T22:49:48.804Z,16.80
2019-05-15T22:52:45.973Z,17.52
2019-05-15T22:55:42.594Z,18.15
2019-05-15T22:58:38.649Z,16.50
2019-05-15T23:01:34.003Z,16.57
2019-05-15T23:04:29.540Z,16.80
2019-05-15T23:07:25.285Z,17.95
2019-05-15T23:10:22.087Z,17.50
2019-05-15T23:13:18.637Z,16.02
2019-05-15T23:16:18.265Z,19.95
2019-05-15T23:19:14.545Z,16.32
2019-05-15T23:22:11.839Z,16.90
2019-05-15T23:25:08.993Z,19.65
2019-05-15T23:28:08.350Z,16.75
2019-05-15T23:31:04.419Z,16.55
2019-05-15T23:34:01.762Z,17.00
2019-05-15T23:36:59.514Z,15.95
2019-05-15T23:39:57.984Z,19.75
2019-05-15T23:42:55.229Z,17.52
2019-05-15T23:45:52.878Z,17.02
2019-05-15T23:48:49.176Z,17.60
2019-05-15T23:51:48.668Z,17.35
2019-05-15T23:54:41.282Z,18.45
2019-05-15T23:57:38.951Z,17.92
